createdAt,value
2023-11-09T00:00:15.785Z,79.17
2023-11-09T00:05:18.138Z,78.61
2023-11-09T00:10:20.318Z,78.44
2023-11-09T00:15:22.380Z,78.66
2023-11-09T00:20:24.466Z,79.41
2023-11-09T00:25:26.775Z,79.24
2023-11-09T00:30:29.132Z,78.67
2023-11-09T00:35:31.432Z,77.98
2023-11-09T00:40:33.939Z,78.39
2023-11-09T00:45:36.117Z,79.05
2023-11-09T00:50:38.307Z,78.55
2023-11-09T00:55:40.579Z,77.59
2023-11-09T01:00:42.830Z,77.38
2023-11-09T01:05:44.871Z,77.47
2023-11-09T01:10:47.018Z,77.75
2023-11-09T01:15:49.097Z,76.50
2023-11-09T01:20:51.391Z,76.10
2023-11-09T01:25:53.681Z,75.39
2023-11-09T01:30:55.925Z,76.33
2023-11-09T01:35:58.252Z,77.02
2023-11-09T01:41:00.440Z,76.15
2023-11-09T01:46:02.757Z,76.12
2023-11-09T01:51:05.394Z,76.59
2023-11-09T01:56:07.872Z,76.95
2023-11-09T02:01:12.634Z,76.55
2023-11-09T02:06:14.955Z,76.49
2023-11-09T02:11:17.311Z,76.18
2023-11-09T02:16:19.512Z,76.59
2023-11-09T02:21:21.931Z,77.17
2023-11-09T02:26:24.199Z,76.88
2023-11-09T02:31:26.356Z,76.26
2023-11-09T02:36:28.778Z,75.84
2023-11-09T02:41:31.268Z,76.10
2023-11-09T02:46:33.683Z,76.57
2023-11-09T02:51:36.067Z,76.15
2023-11-09T02:56:38.701Z,76.43
2023-11-09T03:01:40.970Z,76.89
2023-11-09T03:06:43.152Z,77.66
2023-11-09T03:11:45.200Z,77.49
2023-11-09T03:16:47.393Z,76.42
2023-11-09T03:21:49.575Z,76.96
2023-11-09T03:26:51.968Z,77.74
2023-11-09T03:31:54.260Z,77.53
2023-11-09T03:36:56.552Z,77.58
2023-11-09T03:41:58.765Z,77.68
2023-11-09T03:47:01.285Z,78.01
2023-11-09T03:52:03.977Z,77.71
2023-11-09T03:57:06.318Z,77.56
2023-11-09T04:02:08.293Z,77.81
2023-11-09T04:07:10.614Z,78.47
2023-11-09T04:12:12.858Z,78.48
2023-11-09T04:17:14.948Z,77.98
2023-11-09T04:22:18.631Z,77.58
2023-11-09T04:27:20.955Z,78.00
2023-11-09T04:32:23.042Z,78.97
2023-11-09T04:37:25.356Z,78.62
2023-11-09T04:42:27.824Z,78.69
2023-11-09T04:47:30.113Z,78.46
2023-11-09T04:52:32.500Z,78.41
2023-11-09T04:57:34.913Z,79.25
2023-11-09T05:02:37.162Z,79.20
2023-11-09T05:07:39.607Z,78.56
2023-11-09T05:12:42.060Z,78.04
2023-11-09T05:17:44.317Z,78.31
2023-11-09T05:22:48.322Z,79.06
2023-11-09T05:27:50.555Z,79.24
2023-11-09T05:32:52.778Z,78.71
2023-11-09T05:37:55.161Z,78.18
2023-11-09T05:42:57.425Z,78.52
2023-11-09T05:47:59.675Z,79.42
2023-11-09T05:53:02.101Z,79.22
2023-11-09T05:58:04.480Z,78.76
2023-11-09T06:03:06.942Z,78.45
2023-11-09T06:08:09.385Z,78.93
2023-11-09T06:13:11.639Z,78.41
2023-11-09T06:18:14.114Z,78.39
2023-11-09T06:23:16.347Z,78.21
2023-11-09T06:28:19.157Z,78.62
2023-11-09T06:33:21.746Z,78.12
2023-11-09T06:38:23.908Z,77.38
2023-11-09T06:43:26.107Z,77.03
2023-11-09T06:48:28.562Z,77.44
2023-11-09T06:53:30.903Z,76.86
2023-11-09T06:58:33.151Z,76.06
2023-11-09T07:03:35.473Z,76.06
2023-11-09T07:08:37.617Z,76.74
2023-11-09T07:13:39.575Z,75.47
2023-11-09T07:18:41.955Z,73.14
2023-11-09T07:23:44.311Z,72.74
2023-11-09T07:28:46.414Z,72.48
2023-11-09T07:33:48.553Z,72.28
2023-11-09T07:38:50.768Z,70.44
2023-11-09T07:43:52.773Z,70.80
2023-11-09T07:48:55.001Z,70.42
2023-11-09T07:53:58.454Z,69.77
2023-11-09T07:59:01.200Z,71.51
2023-11-09T08:04:03.437Z,69.93
2023-11-09T08:09:06.245Z,68.95
2023-11-09T08:14:08.517Z,68.47
2023-11-09T08:19:11.189Z,67.96
2023-11-09T08:24:13.720Z,68.41
2023-11-09T08:29:15.895Z,67.37
2023-11-09T08:34:18.079Z,65.36
2023-11-09T08:39:20.502Z,65.78
2023-11-09T08:44:22.764Z,65.35
2023-11-09T08:49:25.075Z,62.73
2023-11-09T08:54:27.270Z,61.75
2023-11-09T08:59:31.528Z,61.24
2023-11-09T09:04:34.585Z,60.13
2023-11-09T09:09:44.882Z,61.48
2023-11-09T09:14:49.097Z,60.63
2023-11-09T09:19:51.632Z,59.49
2023-11-09T09:24:54.087Z,58.01
2023-11-09T09:29:56.354Z,57.68
2023-11-09T09:34:58.541Z,56.49
2023-11-09T09:40:00.857Z,57.83
2023-11-09T09:45:03.113Z,58.21
2023-11-09T09:50:06.120Z,57.51
2023-11-09T09:55:08.860Z,56.95
2023-11-09T10:00:11.898Z,56.49
2023-11-09T10:05:14.177Z,58.50
2023-11-09T10:10:16.386Z,55.80
2023-11-09T10:15:18.502Z,55.27
2023-11-09T10:20:20.862Z,55.33
2023-11-09T10:25:29.252Z,54.71
2023-11-09T10:30:45.930Z,54.89
2023-11-09T10:35:48.329Z,55.81
2023-11-09T10:41:14.444Z,54.94
2023-11-09T10:46:13.197Z,54.14
2023-11-09T10:51:15.231Z,53.90
2023-11-09T10:56:17.801Z,54.38
2023-11-09T11:01:23.475Z,55.39
2023-11-09T11:06:31.295Z,53.09
2023-11-09T11:11:33.573Z,52.26
2023-11-09T11:16:54.207Z,52.46
2023-11-09T11:22:19.720Z,52.39
2023-11-09T11:27:45.826Z,52.67
2023-11-09T11:32:49.650Z,53.08
2023-11-09T11:37:53.894Z,50.43
2023-11-09T11:42:57.184Z,50.17
2023-11-09T11:48:00.001Z,49.06
2023-11-09T11:53:02.697Z,48.59
2023-11-09T11:58:08.042Z,47.38
2023-11-09T12:03:11.083Z,46.44
2023-11-09T12:08:13.402Z,44.92
2023-11-09T12:13:15.608Z,42.55
2023-11-09T12:18:17.913Z,40.68
2023-11-09T12:23:19.944Z,38.68
2023-11-09T12:28:22.121Z,36.69
2023-11-09T12:33:24.383Z,35.34
2023-11-09T12:38:26.857Z,36.91
2023-11-09T12:43:36.302Z,38.34
2023-11-09T12:48:42.913Z,39.68
2023-11-09T12:53:45.072Z,43.38
2023-11-09T12:58:51.065Z,45.10
2023-11-09T13:03:54.002Z,45.36
2023-11-09T13:08:56.852Z,46.64
2023-11-09T13:14:00.380Z,48.18
2023-11-09T13:19:09.462Z,48.63
2023-11-09T13:24:17.758Z,49.87
2023-11-09T13:29:19.824Z,51.61
2023-11-09T13:34:22.228Z,52.29
2023-11-09T13:39:24.467Z,51.45
2023-11-09T13:44:26.707Z,51.85
2023-11-09T13:49:29.097Z,52.20
2023-11-09T13:54:32.610Z,52.42
2023-11-09T13:59:34.821Z,52.70
2023-11-09T14:04:37.254Z,52.96
2023-11-09T14:09:39.568Z,53.01
2023-11-09T14:14:42.166Z,54.14
2023-11-09T14:19:45.501Z,55.18
2023-11-09T14:24:47.774Z,55.12
2023-11-09T14:29:50.891Z,55.73
2023-11-09T14:34:53.357Z,56.16
2023-11-09T14:39:55.659Z,56.59
2023-11-09T14:44:57.850Z,57.22
2023-11-09T14:50:00.286Z,58.05
2023-11-09T14:55:02.624Z,58.85
2023-11-09T15:00:05.525Z,60.24
2023-11-09T15:05:09.096Z,60.63
2023-11-09T15:10:11.538Z,60.75
2023-11-09T15:15:13.734Z,61.24
2023-11-09T15:20:16.320Z,61.62
2023-11-09T15:25:18.644Z,62.04
2023-11-09T15:30:21.013Z,63.32
2023-11-09T15:35:23.348Z,63.26
2023-11-09T15:41:09.633Z,63.48
2023-11-09T15:45:47.857Z,63.74
2023-11-09T15:50:50.226Z,64.50
2023-11-09T15:55:52.438Z,64.61
2023-11-09T16:00:55.660Z,65.51
2023-11-09T16:05:59.112Z,65.74
2023-11-09T16:11:01.364Z,65.74
2023-11-09T16:16:04.729Z,65.76
2023-11-09T16:21:08.040Z,66.15
2023-11-09T16:26:10.889Z,67.04
2023-11-09T16:31:13.275Z,67.31
2023-11-09T16:36:15.830Z,67.21
2023-11-09T16:41:17.906Z,67.49
2023-11-09T16:46:20.284Z,67.51
2023-11-09T16:51:22.580Z,68.55
2023-11-09T16:56:24.698Z,68.66
2023-11-09T17:01:26.972Z,68.54
2023-11-09T17:06:29.565Z,68.49
2023-11-09T17:11:31.634Z,68.48
2023-11-09T17:16:33.729Z,68.91
2023-11-09T17:21:35.887Z,69.50
2023-11-09T17:26:37.887Z,69.84
2023-11-09T17:31:39.993Z,69.66
2023-11-09T17:36:42.277Z,69.97
2023-11-09T17:41:44.770Z,69.82
2023-11-09T17:46:47.423Z,70.00
2023-11-09T17:51:51.079Z,70.81
2023-11-09T17:56:53.455Z,70.96
2023-11-09T18:01:55.698Z,70.61
2023-11-09T18:06:58.140Z,70.47
2023-11-09T18:12:00.539Z,70.53
2023-11-09T18:17:02.849Z,71.36
2023-11-09T18:22:05.166Z,71.24
2023-11-09T18:27:07.432Z,71.04
2023-11-09T18:32:09.619Z,71.12
2023-11-09T18:37:13.855Z,70.92
2023-11-09T18:42:16.405Z,71.12
2023-11-09T18:47:18.744Z,71.96
2023-11-09T18:52:21.085Z,72.08
2023-11-09T18:57:23.193Z,72.00
2023-11-09T19:02:25.381Z,71.83
2023-11-09T19:07:27.863Z,71.72
2023-11-09T19:12:30.155Z,71.93
2023-11-09T19:17:32.552Z,72.70
2023-11-09T19:22:35.536Z,72.78
2023-11-09T19:27:38.288Z,72.72
2023-11-09T19:32:40.743Z,72.44
2023-11-09T19:37:43.651Z,72.40
2023-11-09T19:42:48.881Z,73.10
2023-11-09T19:47:52.418Z,73.17
2023-11-09T19:52:54.638Z,72.82
2023-11-09T19:57:56.658Z,72.81
2023-11-09T20:02:59.343Z,72.41
2023-11-09T20:08:01.749Z,72.73
2023-11-09T20:13:03.657Z,73.45
2023-11-09T20:18:06.106Z,73.27
2023-11-09T20:23:08.592Z,73.12
2023-11-09T20:28:11.620Z,73.01
2023-11-09T20:33:14.048Z,73.20
2023-11-09T20:38:16.499Z,73.93
2023-11-09T20:43:18.422Z,73.85
2023-11-09T20:48:20.737Z,73.60
2023-11-09T20:53:23.721Z,73.49
2023-11-09T20:58:25.801Z,73.52
2023-11-09T21:03:28.217Z,74.27
2023-11-09T21:08:30.417Z,74.34
2023-11-09T21:13:32.526Z,73.99
2023-11-09T21:18:35.359Z,73.76
2023-11-09T21:23:37.717Z,73.90
2023-11-09T21:28:40.277Z,74.75
2023-11-09T21:33:42.722Z,74.39
2023-11-09T21:38:45.184Z,73.93
2023-11-09T21:43:47.184Z,73.92
2023-11-09T21:48:49.473Z,73.82
2023-11-09T21:53:51.746Z,74.07
2023-11-09T21:58:53.713Z,74.80
2023-11-09T22:03:55.731Z,74.84
2023-11-09T22:08:57.985Z,74.46
2023-11-09T22:14:00.277Z,74.45
2023-11-09T22:19:02.384Z,74.28
2023-11-09T22:24:05.121Z,74.50
2023-11-09T22:29:07.888Z,75.15
2023-11-09T22:34:10.263Z,75.15
2023-11-09T22:39:12.766Z,74.82
2023-11-09T22:44:14.828Z,74.47
2023-11-09T22:49:17.950Z,74.42
2023-11-09T22:54:20.141Z,74.66
2023-11-09T22:59:22.709Z,74.80
2023-11-09T23:04:24.710Z,74.81
2023-11-09T23:09:26.899Z,74.53
2023-11-09T23:14:29.174Z,74.74
2023-11-09T23:19:31.566Z,74.62
2023-11-09T23:24:33.607Z,74.51
2023-11-09T23:29:35.688Z,74.89
2023-11-09T23:34:37.854Z,75.39
2023-11-09T23:39:39.979Z,74.93
2023-11-09T23:44:42.785Z,74.85
2023-11-09T23:49:44.802Z,74.79
2023-11-09T23:54:46.878Z,74.74
2023-11-09T23:59:48.972Z,75.23
